createdAt,value
2023-04-18T00:00:46.441Z,8.92
2023-04-18T00:01:46.481Z,8.92
2023-04-18T00:02:46.537Z,8.92
2023-04-18T00:03:46.629Z,8.91
2023-04-18T00:04:46.551Z,8.87
2023-04-18T00:05:46.356Z,8.92
2023-04-18T00:06:46.347Z,8.92
2023-04-18T00:07:46.350Z,8.91
2023-04-18T00:08:46.315Z,8.92
2023-04-18T00:09:46.319Z,8.81
2023-04-18T00:10:46.303Z,8.95
2023-04-18T00:11:46.283Z,8.89
2023-04-18T00:12:46.270Z,8.96
2023-04-18T00:13:46.290Z,8.96
2023-04-18T00:14:46.247Z,8.94
2023-04-18T00:15:46.299Z,8.81
2023-04-18T00:16:46.457Z,8.89
2023-04-18T00:17:46.264Z,8.91
2023-04-18T00:18:46.204Z,8.83
2023-04-18T00:19:46.208Z,8.86
2023-04-18T00:20:46.265Z,8.83
2023-04-18T00:21:46.168Z,8.77
2023-04-18T00:22:46.169Z,8.77
2023-04-18T00:23:46.174Z,8.76
2023-04-18T00:24:46.169Z,8.81
2023-04-18T00:25:46.145Z,8.70
2023-04-18T00:26:46.184Z,8.83
2023-04-18T00:27:46.157Z,8.76
2023-04-18T00:28:46.100Z,8.68
2023-04-18T00:29:46.082Z,8.79
2023-04-18T00:30:46.141Z,8.62
2023-04-18T00:31:46.076Z,8.73
2023-04-18T00:32:46.121Z,8.74
2023-04-18T00:33:46.126Z,8.65
2023-04-18T00:34:46.034Z,8.68
2023-04-18T00:35:46.019Z,8.62
2023-04-18T00:36:46.038Z,8.63
2023-04-18T00:37:45.995Z,8.66
2023-04-18T00:38:46.024Z,8.55
2023-04-18T00:39:45.988Z,8.56
2023-04-18T00:40:45.983Z,8.65
2023-04-18T00:41:46.014Z,8.58
2023-04-18T00:42:45.979Z,8.55
2023-04-18T00:43:45.948Z,8.47
2023-04-18T00:44:45.951Z,8.48
2023-04-18T00:45:45.933Z,8.44
2023-04-18T00:46:45.897Z,8.50
2023-04-18T00:47:45.957Z,8.43
2023-04-18T00:48:45.874Z,8.47
2023-04-18T00:49:45.866Z,8.45
2023-04-18T00:50:45.889Z,8.43
2023-04-18T00:51:45.847Z,8.47
2023-04-18T00:52:45.841Z,8.43
2023-04-18T00:53:45.823Z,8.36
2023-04-18T00:54:45.820Z,8.34
2023-04-18T00:55:45.831Z,8.37
2023-04-18T00:56:45.844Z,8.33
2023-04-18T00:57:45.805Z,8.26
2023-04-18T00:58:45.774Z,8.34
2023-04-18T00:59:45.757Z,8.33
2023-04-18T01:00:45.751Z,8.34
2023-04-18T01:01:45.838Z,8.30
2023-04-18T01:02:45.854Z,8.29
2023-04-18T01:03:45.927Z,8.26
2023-04-18T01:04:45.772Z,8.29
2023-04-18T01:05:45.690Z,8.29
2023-04-18T01:06:45.721Z,8.29
2023-04-18T01:07:45.713Z,8.20
2023-04-18T01:08:45.663Z,8.23
2023-04-18T01:09:45.657Z,8.18
2023-04-18T01:10:45.757Z,8.16
2023-04-18T01:11:45.639Z,8.22
2023-04-18T01:12:45.626Z,8.19
2023-04-18T01:13:45.649Z,8.25
2023-04-18T01:14:45.589Z,8.23
2023-04-18T01:15:45.700Z,8.19
2023-04-18T01:16:45.568Z,8.16
2023-04-18T01:17:45.622Z,8.10
2023-04-18T01:18:45.570Z,8.12
2023-04-18T01:19:45.554Z,8.12
2023-04-18T01:20:45.521Z,8.19
2023-04-18T01:21:45.520Z,8.08
2023-04-18T01:22:45.499Z,8.12
2023-04-18T01:23:45.537Z,8.08
2023-04-18T01:24:45.515Z,8.02
2023-04-18T01:25:45.504Z,8.10
2023-04-18T01:26:45.471Z,8.08
2023-04-18T01:27:45.477Z,8.12
2023-04-18T01:28:45.442Z,8.04
2023-04-18T01:29:45.447Z,8.08
2023-04-18T01:30:45.436Z,7.98
2023-04-18T01:31:45.440Z,8.11
2023-04-18T01:32:45.408Z,8.04
2023-04-18T01:33:45.382Z,8.08
2023-04-18T01:34:45.387Z,8.08
2023-04-18T01:35:45.398Z,8.11
2023-04-18T01:36:45.353Z,8.07
2023-04-18T01:37:45.356Z,8.07
2023-04-18T01:38:45.332Z,8.04
2023-04-18T01:39:45.326Z,8.08
2023-04-18T01:40:45.338Z,8.07
2023-04-18T01:41:45.328Z,7.98
2023-04-18T01:42:45.306Z,8.01
2023-04-18T01:43:45.317Z,8.00
2023-04-18T01:44:45.275Z,7.98
2023-04-18T01:45:45.468Z,8.01
2023-04-18T01:46:45.368Z,8.02
2023-04-18T01:47:45.292Z,7.98
2023-04-18T01:48:45.251Z,7.98
2023-04-18T01:49:45.250Z,7.95
2023-04-18T01:50:45.203Z,7.89
2023-04-18T01:51:45.191Z,7.93
2023-04-18T01:52:45.186Z,7.85
2023-04-18T01:53:45.231Z,7.87
2023-04-18T01:54:45.160Z,7.87
2023-04-18T01:55:45.152Z,7.80
2023-04-18T01:56:45.143Z,7.80
2023-04-18T01:57:45.142Z,7.72
2023-04-18T01:58:45.174Z,7.72
2023-04-18T01:59:45.122Z,7.72
2023-04-18T02:00:45.146Z,7.71
2023-04-18T02:01:45.114Z,7.61
2023-04-18T02:02:45.133Z,7.60
2023-04-18T02:03:45.320Z,7.52
2023-04-18T02:04:45.051Z,7.45
2023-04-18T02:05:45.058Z,7.67
2023-04-18T02:06:45.026Z,7.50
2023-04-18T02:07:45.033Z,7.49
2023-04-18T02:08:45.055Z,7.55
2023-04-18T02:09:44.989Z,7.49
2023-04-18T02:10:45.005Z,7.52
2023-04-18T02:11:45.015Z,7.57
2023-04-18T02:12:44.980Z,7.58
2023-04-18T02:13:44.950Z,7.53
2023-04-18T02:14:44.954Z,7.55
2023-04-18T02:15:44.931Z,7.55
2023-04-18T02:16:44.975Z,7.57
2023-04-18T02:17:44.961Z,7.57
2023-04-18T02:18:44.894Z,7.53
2023-04-18T02:19:44.893Z,7.60
2023-04-18T02:20:44.883Z,7.53
2023-04-18T02:21:44.922Z,7.53
2023-04-18T02:22:44.855Z,7.55
2023-04-18T02:23:44.880Z,7.53
2023-04-18T02:24:44.838Z,7.45
2023-04-18T02:25:44.833Z,7.37
2023-04-18T02:26:44.809Z,7.35
2023-04-18T02:27:44.815Z,7.43
2023-04-18T02:28:44.792Z,7.37
2023-04-18T02:29:44.867Z,7.45
2023-04-18T02:30:44.793Z,7.39
2023-04-18T02:31:44.809Z,7.42
2023-04-18T02:32:44.803Z,7.34
2023-04-18T02:33:44.795Z,7.34
2023-04-18T02:34:44.731Z,7.42
2023-04-18T02:35:44.746Z,7.32
2023-04-18T02:36:44.704Z,7.25
2023-04-18T02:37:44.716Z,7.25
2023-04-18T02:38:44.693Z,7.25
2023-04-18T02:39:44.673Z,7.27
2023-04-18T02:40:44.662Z,7.20
2023-04-18T02:41:44.671Z,7.24
2023-04-18T02:42:44.663Z,7.30
2023-04-18T02:43:44.633Z,7.34
2023-04-18T02:44:44.636Z,7.34
2023-04-18T02:45:44.679Z,7.30
2023-04-18T02:46:44.603Z,7.25
2023-04-18T02:47:54.720Z,7.24
2023-04-18T02:48:45.591Z,7.27
2023-04-18T02:49:44.638Z,7.20
2023-04-18T02:50:44.554Z,7.20
2023-04-18T02:51:44.537Z,7.23
2023-04-18T02:52:44.549Z,7.23
2023-04-18T02:53:44.599Z,7.25
2023-04-18T02:54:44.506Z,7.17
2023-04-18T02:55:44.512Z,7.16
2023-04-18T02:56:44.490Z,7.16
2023-04-18T02:57:44.500Z,7.16
2023-04-18T02:58:44.476Z,7.21
2023-04-18T02:59:44.488Z,7.27
2023-04-18T03:00:44.446Z,7.21
2023-04-18T03:01:44.554Z,7.28
2023-04-18T03:02:44.573Z,7.21
2023-04-18T03:03:44.451Z,7.24
2023-04-18T03:04:44.462Z,7.27
2023-04-18T03:05:44.413Z,7.28
2023-04-18T03:06:44.380Z,7.28
2023-04-18T03:07:44.359Z,7.24
2023-04-18T03:08:44.367Z,7.16
2023-04-18T03:09:44.357Z,7.15
2023-04-18T03:10:44.337Z,7.15
2023-04-18T03:11:44.413Z,7.20
2023-04-18T03:12:44.337Z,7.16
2023-04-18T03:13:44.297Z,7.16
2023-04-18T03:14:44.301Z,7.21
2023-04-18T03:15:44.617Z,7.10
2023-04-18T03:16:44.284Z,7.13
2023-04-18T03:17:44.344Z,7.12
2023-04-18T03:18:44.269Z,7.15
2023-04-18T03:19:44.225Z,7.16
2023-04-18T03:20:44.301Z,7.16
2023-04-18T03:21:44.222Z,7.16
2023-04-18T03:22:44.217Z,7.10
2023-04-18T03:23:44.341Z,7.12
2023-04-18T03:24:44.197Z,7.17
2023-04-18T03:25:44.155Z,7.09
2023-04-18T03:26:44.160Z,7.16
2023-04-18T03:27:44.141Z,7.15
2023-04-18T03:28:44.182Z,7.21
2023-04-18T03:29:44.192Z,7.21
2023-04-18T03:30:44.111Z,7.28
2023-04-18T03:31:44.157Z,7.25
2023-04-18T03:32:44.131Z,7.37
2023-04-18T03:33:44.120Z,7.30
2023-04-18T03:34:44.152Z,7.35
2023-04-18T03:35:44.087Z,7.34
2023-04-18T03:36:45.876Z,7.34
2023-04-18T03:37:44.046Z,7.42
2023-04-18T03:38:44.045Z,7.42
2023-04-18T03:39:44.007Z,7.34
2023-04-18T03:40:43.996Z,7.37
2023-04-18T03:41:44.016Z,7.42
2023-04-18T03:42:43.976Z,7.37
2023-04-18T03:43:43.978Z,7.43
2023-04-18T03:44:43.960Z,7.32
2023-04-18T03:45:43.940Z,7.43
2023-04-18T03:46:43.997Z,7.37
2023-04-18T03:47:43.999Z,7.37
2023-04-18T03:48:43.931Z,7.40
2023-04-18T03:49:43.904Z,7.35
2023-04-18T03:50:43.936Z,7.40
2023-04-18T03:51:43.876Z,7.31
2023-04-18T03:52:43.872Z,7.35
2023-04-18T03:53:43.890Z,7.35
2023-04-18T03:54:43.868Z,7.23
2023-04-18T03:55:43.835Z,7.24
2023-04-18T03:56:43.822Z,7.27
2023-04-18T03:57:43.824Z,7.31
2023-04-18T03:58:43.814Z,7.31
2023-04-18T03:59:45.168Z,7.16
2023-04-18T04:00:43.788Z,7.25
2023-04-18T04:01:43.794Z,7.21
2023-04-18T04:02:43.865Z,7.20
2023-04-18T04:03:43.882Z,7.21
2023-04-18T04:04:43.828Z,7.28
2023-04-18T04:05:43.749Z,7.24
2023-04-18T04:06:43.748Z,7.27
2023-04-18T04:07:43.704Z,7.27
2023-04-18T04:08:43.714Z,7.16
2023-04-18T04:09:43.699Z,7.23
2023-04-18T04:10:43.696Z,7.16
2023-04-18T04:11:43.666Z,7.24
2023-04-18T04:12:43.698Z,7.17
2023-04-18T04:13:43.663Z,7.21
2023-04-18T04:14:43.625Z,7.16
2023-04-18T04:15:43.625Z,7.24
2023-04-18T04:16:43.670Z,7.15
2023-04-18T04:17:43.647Z,7.05
2023-04-18T04:18:43.630Z,7.07
2023-04-18T04:19:43.584Z,7.07
2023-04-18T04:20:43.593Z,7.09
2023-04-18T04:21:43.601Z,7.09
2023-04-18T04:22:43.570Z,7.06
2023-04-18T04:23:43.570Z,7.15
2023-04-18T04:24:43.642Z,7.13
2023-04-18T04:25:43.587Z,7.17
2023-04-18T04:26:43.504Z,7.28
2023-04-18T04:27:43.486Z,7.15
2023-04-18T04:28:43.494Z,7.30
2023-04-18T04:29:43.467Z,7.31
2023-04-18T04:30:43.495Z,7.39
2023-04-18T04:31:43.467Z,7.37
2023-04-18T04:32:43.489Z,7.46
2023-04-18T04:33:43.417Z,7.50
2023-04-18T04:34:43.428Z,7.48
2023-04-18T04:35:43.426Z,7.48
2023-04-18T04:36:43.433Z,7.52
2023-04-18T04:37:43.394Z,7.60
2023-04-18T04:38:43.368Z,7.53
2023-04-18T04:39:43.366Z,7.61
2023-04-18T04:40:43.350Z,7.67
2023-04-18T04:41:43.373Z,7.55
2023-04-18T04:42:43.358Z,7.58
2023-04-18T04:43:43.330Z,7.69
2023-04-18T04:44:43.388Z,7.64
2023-04-18T04:45:43.362Z,7.61
2023-04-18T04:46:43.281Z,7.63
2023-04-18T04:47:43.321Z,7.75
2023-04-18T04:48:43.343Z,7.74
2023-04-18T04:49:43.264Z,7.68
2023-04-18T04:50:43.249Z,7.71
2023-04-18T04:51:43.228Z,7.72
2023-04-18T04:52:43.228Z,7.72
2023-04-18T04:53:43.198Z,7.74
2023-04-18T04:54:43.396Z,7.74
2023-04-18T04:55:43.200Z,7.83
2023-04-18T04:56:43.185Z,7.79
2023-04-18T04:57:43.219Z,7.87
2023-04-18T04:58:43.146Z,7.87
2023-04-18T04:59:43.143Z,7.90
2023-04-18T05:00:43.164Z,7.86
2023-04-18T05:01:43.127Z,7.97
2023-04-18T05:02:43.276Z,7.86
2023-04-18T05:03:43.402Z,8.00
2023-04-18T05:04:43.186Z,8.00
2023-04-18T05:05:43.067Z,8.01
2023-04-18T05:06:43.110Z,8.04
2023-04-18T05:07:43.046Z,7.98
2023-04-18T05:08:43.030Z,8.00
2023-04-18T05:09:43.027Z,8.07
2023-04-18T05:10:43.018Z,8.04
2023-04-18T05:11:43.016Z,8.01
2023-04-18T05:12:43.030Z,7.95
2023-04-18T05:13:43.017Z,8.02
2023-04-18T05:14:42.977Z,8.11
2023-04-18T05:15:43.005Z,8.07
2023-04-18T05:16:43.014Z,8.01
2023-04-18T05:17:42.999Z,8.15
2023-04-18T05:18:42.964Z,8.02
2023-04-18T05:19:42.918Z,8.12
2023-04-18T05:20:42.914Z,8.15
2023-04-18T05:21:42.927Z,8.15
2023-04-18T05:22:42.896Z,8.15
2023-04-18T05:23:42.913Z,8.19
2023-04-18T05:24:50.430Z,8.26
2023-04-18T05:25:42.909Z,8.16
2023-04-18T05:26:42.838Z,8.26
2023-04-18T05:27:42.859Z,8.36
2023-04-18T05:28:42.844Z,8.30
2023-04-18T05:29:42.828Z,8.33
2023-04-18T05:30:42.894Z,8.33
2023-04-18T05:31:42.799Z,8.36
2023-04-18T05:32:42.815Z,8.44
2023-04-18T05:33:42.803Z,8.37
2023-04-18T05:34:42.754Z,8.47
2023-04-18T05:35:42.752Z,8.43
2023-04-18T05:36:42.732Z,8.44
2023-04-18T05:37:42.747Z,8.53
2023-04-18T05:38:42.712Z,8.45
2023-04-18T05:39:42.729Z,8.48
2023-04-18T05:40:42.699Z,8.48
2023-04-18T05:41:42.707Z,8.50
2023-04-18T05:42:42.687Z,8.58
2023-04-18T05:43:44.470Z,8.62
2023-04-18T05:44:43.737Z,8.61
2023-04-18T05:45:42.757Z,8.66
2023-04-18T05:46:42.770Z,8.62
2023-04-18T05:47:42.658Z,8.65
2023-04-18T05:48:42.607Z,8.68
2023-04-18T05:49:42.621Z,8.71
2023-04-18T05:50:42.604Z,8.73
2023-04-18T05:51:42.576Z,8.76
2023-04-18T05:52:42.584Z,8.77
2023-04-18T05:53:42.559Z,8.81
2023-04-18T05:54:42.566Z,8.80
2023-04-18T05:55:42.542Z,8.79
2023-04-18T05:56:42.563Z,8.94
2023-04-18T05:57:42.516Z,8.95
2023-04-18T05:58:42.531Z,9.04
2023-04-18T05:59:42.523Z,9.08
2023-04-18T06:00:42.481Z,9.10
2023-04-18T06:01:42.538Z,9.11
2023-04-18T06:02:42.580Z,9.26
2023-04-18T06:03:42.722Z,9.31
2023-04-18T06:04:42.781Z,9.24
2023-04-18T06:05:42.450Z,9.23
2023-04-18T06:06:42.410Z,9.28
2023-04-18T06:07:42.421Z,9.33
2023-04-18T06:08:42.410Z,9.35
2023-04-18T06:09:42.395Z,9.47
2023-04-18T06:10:42.360Z,9.58
2023-04-18T06:11:42.382Z,9.58
2023-04-18T06:12:42.345Z,9.71
2023-04-18T06:13:42.354Z,9.83
2023-04-18T06:14:42.323Z,9.86
2023-04-18T06:15:42.326Z,9.91
2023-04-18T06:16:42.330Z,10.02
2023-04-18T06:17:42.391Z,10.20
2023-04-18T06:18:42.288Z,10.27
2023-04-18T06:19:42.308Z,10.32
2023-04-18T06:20:42.273Z,10.41
2023-04-18T06:21:42.268Z,10.60
2023-04-18T06:22:42.238Z,10.63
2023-04-18T06:23:42.299Z,10.70
2023-04-18T06:24:42.213Z,10.71
2023-04-18T06:25:42.225Z,10.89
2023-04-18T06:26:42.194Z,10.99
2023-04-18T06:27:43.019Z,11.02
2023-04-18T06:28:42.178Z,11.03
2023-04-18T06:29:42.212Z,11.17
2023-04-18T06:30:42.165Z,11.09
2023-04-18T06:31:42.405Z,11.09
2023-04-18T06:32:42.185Z,11.10
2023-04-18T06:33:42.147Z,11.33
2023-04-18T06:34:42.110Z,11.37
2023-04-18T06:35:42.117Z,11.39
2023-04-18T06:36:42.081Z,11.54
2023-04-18T06:37:42.079Z,11.62
2023-04-18T06:38:42.074Z,11.61
2023-04-18T06:39:42.047Z,11.72
2023-04-18T06:40:42.037Z,11.83
2023-04-18T06:41:42.027Z,11.95
2023-04-18T06:42:42.050Z,12.02
2023-04-18T06:43:49.300Z,11.91
2023-04-18T06:44:43.040Z,11.98
2023-04-18T06:45:42.029Z,11.86
2023-04-18T06:46:41.970Z,11.90
2023-04-18T06:47:41.994Z,12.07
2023-04-18T06:48:41.965Z,12.28
2023-04-18T06:49:41.969Z,12.29
2023-04-18T06:50:41.963Z,12.42
2023-04-18T06:51:41.919Z,12.54
2023-04-18T06:52:41.903Z,12.57
2023-04-18T06:53:41.903Z,12.54
2023-04-18T06:54:41.905Z,12.60
2023-04-18T06:55:41.898Z,12.70
2023-04-18T06:56:41.865Z,12.82
2023-04-18T06:57:41.859Z,12.85
2023-04-18T06:58:41.859Z,12.97
2023-04-18T06:59:41.848Z,13.03
2023-04-18T07:00:41.940Z,12.95
2023-04-18T07:01:42.483Z,13.12
2023-04-18T07:02:41.874Z,13.11
2023-04-18T07:03:41.854Z,13.05
2023-04-18T07:04:41.971Z,13.00
2023-04-18T07:05:41.869Z,12.95
2023-04-18T07:06:41.749Z,12.34
2023-04-18T07:07:41.783Z,12.39
2023-04-18T07:08:41.728Z,12.35
2023-04-18T07:09:41.724Z,12.53
2023-04-18T07:10:41.750Z,12.70
2023-04-18T07:11:41.697Z,12.77
2023-04-18T07:12:41.699Z,12.90
2023-04-18T07:13:41.678Z,13.04
2023-04-18T07:14:41.675Z,13.05
2023-04-18T07:15:41.680Z,13.10
2023-04-18T07:16:41.706Z,13.29
2023-04-18T07:17:41.701Z,13.48
2023-04-18T07:18:41.622Z,13.32
2023-04-18T07:19:41.619Z,13.41
2023-04-18T07:20:41.612Z,13.59
2023-04-18T07:21:41.602Z,13.64
2023-04-18T07:22:41.578Z,13.75
2023-04-18T07:23:41.600Z,13.70
2023-04-18T07:24:41.567Z,13.78
2023-04-18T07:25:41.546Z,13.81
2023-04-18T07:26:41.544Z,13.71
2023-04-18T07:27:41.522Z,13.77
2023-04-18T07:28:41.529Z,13.66
2023-04-18T07:29:41.596Z,13.59
2023-04-18T07:30:41.522Z,13.36
2023-04-18T07:31:41.500Z,13.49
2023-04-18T07:32:41.509Z,13.25
2023-04-18T07:33:41.464Z,13.20
2023-04-18T07:34:41.439Z,13.23
2023-04-18T07:35:41.558Z,13.48
2023-04-18T07:36:41.437Z,13.39
2023-04-18T07:37:41.679Z,13.54
2023-04-18T07:38:41.443Z,13.70
2023-04-18T07:39:41.392Z,13.79
2023-04-18T07:40:41.386Z,13.77
2023-04-18T07:41:41.372Z,13.99
2023-04-18T07:42:41.388Z,14.03
2023-04-18T07:43:41.351Z,13.82
2023-04-18T07:44:41.357Z,13.69
2023-04-18T07:45:41.326Z,13.71
2023-04-18T07:46:41.437Z,13.79
2023-04-18T07:47:41.330Z,13.95
2023-04-18T07:48:41.327Z,14.02
2023-04-18T07:49:41.302Z,14.14
2023-04-18T07:50:41.290Z,14.20
2023-04-18T07:51:41.256Z,14.15
2023-04-18T07:52:41.267Z,13.84
2023-04-18T07:53:41.437Z,13.60
2023-04-18T07:54:41.255Z,13.39
2023-04-18T07:55:41.237Z,13.19
2023-04-18T07:56:41.218Z,13.08
2023-04-18T07:57:41.190Z,12.96
2023-04-18T07:58:41.211Z,12.92
2023-04-18T07:59:41.184Z,12.90
2023-04-18T08:00:41.292Z,12.75
2023-04-18T08:01:41.150Z,12.45
2023-04-18T08:02:41.440Z,12.37
2023-04-18T08:03:41.271Z,12.29
2023-04-18T08:04:41.296Z,12.24
2023-04-18T08:05:42.326Z,12.23
2023-04-18T08:06:41.087Z,12.16
2023-04-18T08:07:41.085Z,11.98
2023-04-18T08:08:41.064Z,11.85
2023-04-18T08:09:41.099Z,11.76
2023-04-18T08:10:41.051Z,11.64
2023-04-18T08:11:41.046Z,11.73
2023-04-18T08:12:41.040Z,11.69
2023-04-18T08:13:41.016Z,11.75
2023-04-18T08:14:41.023Z,11.76
2023-04-18T08:15:41.004Z,11.73
2023-04-18T08:16:41.031Z,11.75
2023-04-18T08:17:40.994Z,11.70
2023-04-18T08:18:40.962Z,11.58
2023-04-18T08:19:40.964Z,11.58
2023-04-18T08:20:40.944Z,11.51
2023-04-18T08:21:40.954Z,11.65
2023-04-18T08:22:57.146Z,11.70
2023-04-18T08:23:41.905Z,11.73
2023-04-18T08:24:42.919Z,11.72
2023-04-18T08:25:41.957Z,11.69
2023-04-18T08:26:40.870Z,11.72
2023-04-18T08:27:40.882Z,11.86
2023-04-18T08:28:40.852Z,11.82
2023-04-18T08:29:40.842Z,11.75
2023-04-18T08:30:40.842Z,11.52
2023-04-18T08:31:40.916Z,11.55
2023-04-18T08:32:40.846Z,11.65
2023-04-18T08:33:40.814Z,11.49
2023-04-18T08:34:40.798Z,11.43
2023-04-18T08:35:40.790Z,11.54
2023-04-18T08:36:40.776Z,11.46
2023-04-18T08:37:40.760Z,11.52
2023-04-18T08:38:40.743Z,11.24
2023-04-18T08:39:40.776Z,11.21
2023-04-18T08:40:40.726Z,11.35
2023-04-18T08:41:41.440Z,11.37
2023-04-18T08:42:41.480Z,11.43
2023-04-18T08:43:40.687Z,11.46
2023-04-18T08:44:40.695Z,11.62
2023-04-18T08:45:40.706Z,11.69
2023-04-18T08:46:40.656Z,11.67
2023-04-18T08:47:40.678Z,11.61
2023-04-18T08:48:40.649Z,11.49
2023-04-18T08:49:40.611Z,11.44
2023-04-18T08:50:40.635Z,11.64
2023-04-18T08:51:40.608Z,11.54
2023-04-18T08:52:41.508Z,11.55
2023-04-18T08:53:40.587Z,11.54
2023-04-18T08:54:40.615Z,11.62
2023-04-18T08:55:40.647Z,11.61
2023-04-18T08:56:40.544Z,11.49
2023-04-18T08:57:40.571Z,11.55
2023-04-18T08:58:40.531Z,11.72
2023-04-18T08:59:40.520Z,11.70
2023-04-18T09:00:40.499Z,11.73
2023-04-18T09:01:40.566Z,11.82
2023-04-18T09:02:40.647Z,11.90
2023-04-18T09:03:40.534Z,11.95
2023-04-18T09:04:40.462Z,11.96
2023-04-18T09:05:40.441Z,11.76
2023-04-18T09:06:40.429Z,11.70
2023-04-18T09:07:40.413Z,11.75
2023-04-18T09:08:40.426Z,11.67
2023-04-18T09:09:40.409Z,11.72
2023-04-18T09:10:40.387Z,11.57
2023-04-18T09:11:40.372Z,11.57
2023-04-18T09:12:40.370Z,11.57
2023-04-18T09:13:40.368Z,11.62
2023-04-18T09:14:40.367Z,11.67
2023-04-18T09:15:40.348Z,11.67
2023-04-18T09:16:40.385Z,11.80
2023-04-18T09:17:40.320Z,11.76
2023-04-18T09:18:40.300Z,11.67
2023-04-18T09:19:40.285Z,11.73
2023-04-18T09:20:40.309Z,11.72
2023-04-18T09:21:40.308Z,11.72
2023-04-18T09:22:40.256Z,11.76
2023-04-18T09:23:40.246Z,11.64
2023-04-18T09:24:40.240Z,11.78
2023-04-18T09:25:42.124Z,11.69
2023-04-18T09:26:40.209Z,11.78
2023-04-18T09:27:40.232Z,11.72
2023-04-18T09:28:40.187Z,11.76
2023-04-18T09:29:40.279Z,11.83
2023-04-18T09:30:40.284Z,11.83
2023-04-18T09:31:40.159Z,11.76
2023-04-18T09:32:40.183Z,11.88
2023-04-18T09:33:40.543Z,11.98
2023-04-18T09:34:40.147Z,12.01
2023-04-18T09:35:40.116Z,12.28
2023-04-18T09:36:40.154Z,12.31
2023-04-18T09:37:40.089Z,12.47
2023-04-18T09:38:40.093Z,12.83
2023-04-18T09:39:40.065Z,13.04
2023-04-18T09:40:40.086Z,13.33
2023-04-18T09:41:40.086Z,13.60
2023-04-18T09:42:40.047Z,13.55
2023-04-18T09:43:40.064Z,13.55
2023-04-18T09:44:40.024Z,13.57
2023-04-18T09:45:40.050Z,13.39
2023-04-18T09:46:40.078Z,13.04
2023-04-18T09:47:40.008Z,12.74
2023-04-18T09:48:40.007Z,12.95
2023-04-18T09:49:39.956Z,13.11
2023-04-18T09:50:39.958Z,13.57
2023-04-18T09:51:39.938Z,13.87
2023-04-18T09:52:39.957Z,14.00
2023-04-18T09:53:39.930Z,14.14
2023-04-18T09:54:39.922Z,14.29
2023-04-18T09:55:39.908Z,14.22
2023-04-18T09:56:39.918Z,14.27
2023-04-18T09:57:39.869Z,14.03
2023-04-18T09:58:39.875Z,13.99
2023-04-18T09:59:39.879Z,13.67
2023-04-18T10:00:39.851Z,13.45
2023-04-18T10:01:39.969Z,13.51
2023-04-18T10:02:39.882Z,13.44
2023-04-18T10:03:39.960Z,13.30
2023-04-18T10:04:39.950Z,13.20
2023-04-18T10:05:39.818Z,13.33
2023-04-18T10:06:39.817Z,13.23
2023-04-18T10:07:39.757Z,13.05
2023-04-18T10:08:39.784Z,13.03
2023-04-18T10:09:39.735Z,13.05
2023-04-18T10:10:39.741Z,13.19
2023-04-18T10:11:39.754Z,13.04
2023-04-18T10:12:39.711Z,12.92
2023-04-18T10:13:39.691Z,12.97
2023-04-18T10:14:39.684Z,13.11
2023-04-18T10:15:40.700Z,13.08
2023-04-18T10:16:39.738Z,13.14
2023-04-18T10:17:44.604Z,13.12
2023-04-18T10:18:40.635Z,13.26
2023-04-18T10:19:39.645Z,13.22
2023-04-18T10:20:39.615Z,13.10
2023-04-18T10:21:39.605Z,13.15
2023-04-18T10:22:39.629Z,13.12
2023-04-18T10:23:39.611Z,13.20
2023-04-18T10:24:39.588Z,13.25
2023-04-18T10:25:39.581Z,13.30
2023-04-18T10:26:39.544Z,13.36
2023-04-18T10:27:39.546Z,13.48
2023-04-18T10:28:39.565Z,13.29
2023-04-18T10:29:39.517Z,13.33
2023-04-18T10:30:39.521Z,13.28
2023-04-18T10:31:39.545Z,13.39
2023-04-18T10:32:39.516Z,13.45
2023-04-18T10:33:41.968Z,13.32
2023-04-18T10:34:39.502Z,13.45
2023-04-18T10:35:41.406Z,13.29
2023-04-18T10:36:39.441Z,13.36
2023-04-18T10:37:39.424Z,13.32
2023-04-18T10:38:39.424Z,13.33
2023-04-18T10:39:39.436Z,13.41
2023-04-18T10:40:39.405Z,13.42
2023-04-18T10:41:39.408Z,13.54
2023-04-18T10:42:39.381Z,13.52
2023-04-18T10:43:39.383Z,13.32
2023-04-18T10:44:39.373Z,13.26
2023-04-18T10:45:39.353Z,13.39
2023-04-18T10:46:39.351Z,13.45
2023-04-18T10:47:39.518Z,13.52
2023-04-18T10:48:39.400Z,13.59
2023-04-18T10:49:39.332Z,13.66
2023-04-18T10:50:39.298Z,13.64
2023-04-18T10:51:39.271Z,13.67
2023-04-18T10:52:39.280Z,13.57
2023-04-18T10:53:39.274Z,13.57
2023-04-18T10:54:39.312Z,13.54
2023-04-18T10:55:39.238Z,13.63
2023-04-18T10:56:39.234Z,13.64
2023-04-18T10:57:39.210Z,13.67
2023-04-18T10:58:39.205Z,13.70
2023-04-18T10:59:39.191Z,13.79
2023-04-18T11:00:39.239Z,13.67
2023-04-18T11:01:39.197Z,13.67
2023-04-18T11:02:39.341Z,13.71
2023-04-18T11:03:39.258Z,13.78
2023-04-18T11:04:39.139Z,13.85
2023-04-18T11:05:39.251Z,13.88
2023-04-18T11:06:39.128Z,13.88
2023-04-18T11:07:39.117Z,13.84
2023-04-18T11:08:39.124Z,13.78
2023-04-18T11:09:39.078Z,13.82
2023-04-18T11:10:39.069Z,13.89
2023-04-18T11:11:39.060Z,14.06
2023-04-18T11:12:39.080Z,14.24
2023-04-18T11:13:39.056Z,14.36
2023-04-18T11:14:39.031Z,14.45
2023-04-18T11:15:39.009Z,14.50
2023-04-18T11:16:39.024Z,14.77
2023-04-18T11:17:39.064Z,14.77
2023-04-18T11:18:39.008Z,14.70
2023-04-18T11:19:38.962Z,14.81
2023-04-18T11:20:38.992Z,14.80
2023-04-18T11:21:38.972Z,14.78
2023-04-18T11:22:38.949Z,14.84
2023-04-18T11:23:38.923Z,14.86
2023-04-18T11:25:58.299Z,14.62
2023-04-18T11:26:58.204Z,14.65
2023-04-18T11:27:58.251Z,14.58
2023-04-18T11:28:58.212Z,14.57
2023-04-18T11:29:58.184Z,14.77
2023-04-18T11:30:58.169Z,14.80
2023-04-18T11:31:58.895Z,14.80
2023-04-18T11:32:58.266Z,14.70
2023-04-18T11:33:58.154Z,14.77
2023-04-18T11:34:58.134Z,14.89
2023-04-18T11:35:58.121Z,14.81
2023-04-18T11:36:58.230Z,14.80
2023-04-18T11:37:58.102Z,14.83
2023-04-18T11:38:58.100Z,14.84
2023-04-18T11:39:58.076Z,14.83
2023-04-18T11:40:58.058Z,14.88
2023-04-18T11:41:58.053Z,14.84
2023-04-18T11:42:58.060Z,14.81
2023-04-18T11:43:58.035Z,14.81
2023-04-18T11:44:58.017Z,14.80
2023-04-18T11:45:58.023Z,14.64
2023-04-18T11:46:57.991Z,14.54
2023-04-18T11:47:58.074Z,14.51
2023-04-18T11:48:57.997Z,14.51
2023-04-18T11:49:57.983Z,14.47
2023-04-18T11:50:57.946Z,14.50
2023-04-18T11:51:57.942Z,14.46
2023-04-18T11:52:57.966Z,14.40
2023-04-18T11:53:57.923Z,14.36
2023-04-18T11:54:57.968Z,14.33
2023-04-18T11:55:57.941Z,14.40
2023-04-18T11:56:57.910Z,14.39
2023-04-18T11:57:57.877Z,14.36
2023-04-18T11:58:57.868Z,14.27
2023-04-18T11:59:57.884Z,14.25
2023-04-18T12:00:57.873Z,14.33
2023-04-18T12:01:58.863Z,14.22
2023-04-18T12:02:57.884Z,14.24
2023-04-18T12:03:57.980Z,14.33
2023-04-18T12:04:58.213Z,14.32
2023-04-18T12:05:57.945Z,14.47
2023-04-18T12:06:57.807Z,14.39
2023-04-18T12:07:57.793Z,14.43
2023-04-18T12:08:57.933Z,14.40
2023-04-18T12:09:57.749Z,14.43
2023-04-18T12:10:57.751Z,14.43
2023-04-18T12:11:57.748Z,14.46
2023-04-18T12:12:57.755Z,14.50
2023-04-18T12:13:57.714Z,14.57
2023-04-18T12:14:57.693Z,14.57
2023-04-18T12:15:57.714Z,14.61
2023-04-18T12:16:57.667Z,14.64
2023-04-18T12:19:08.915Z,14.86
2023-04-18T12:20:08.904Z,14.91
2023-04-18T12:21:08.882Z,14.91
2023-04-18T12:22:08.894Z,15.02
2023-04-18T12:23:08.860Z,15.01
2023-04-18T12:24:08.889Z,14.96
2023-04-18T12:25:08.856Z,14.83
2023-04-18T12:26:08.898Z,14.89
2023-04-18T12:27:08.819Z,14.91
2023-04-18T12:28:08.802Z,15.03
2023-04-18T12:29:08.804Z,15.20
2023-04-18T12:30:08.805Z,15.32
2023-04-18T12:31:08.942Z,15.32
2023-04-18T12:32:08.754Z,15.43
2023-04-18T12:33:08.748Z,15.54
2023-04-18T12:34:08.730Z,15.65
2023-04-18T12:35:08.745Z,15.53
2023-04-18T12:36:08.708Z,15.60
2023-04-18T12:37:08.777Z,15.75
2023-04-18T12:38:08.681Z,15.78
2023-04-18T12:39:08.688Z,15.84
2023-04-18T12:40:08.732Z,15.90
2023-04-18T12:41:08.667Z,15.80
2023-04-18T12:42:08.643Z,15.87
2023-04-18T12:43:08.651Z,15.64
2023-04-18T12:44:08.617Z,15.72
2023-04-18T12:45:08.617Z,15.76
2023-04-18T12:46:08.599Z,15.80
2023-04-18T12:47:08.687Z,15.74
2023-04-18T12:48:08.575Z,15.84
2023-04-18T12:49:08.612Z,15.92
2023-04-18T12:50:10.726Z,15.76
2023-04-18T12:51:08.545Z,15.60
2023-04-18T12:52:08.677Z,15.44
2023-04-18T12:53:08.544Z,15.43
2023-04-18T12:54:08.639Z,15.43
2023-04-18T12:55:08.498Z,15.51
2023-04-18T12:56:08.584Z,15.57
2023-04-18T12:57:08.530Z,15.74
2023-04-18T12:58:08.480Z,15.89
2023-04-18T12:59:08.519Z,15.82
2023-04-18T13:00:08.448Z,15.64
2023-04-18T13:01:08.458Z,15.62
2023-04-18T13:02:08.620Z,15.54
2023-04-18T13:03:10.346Z,15.38
2023-04-18T13:04:12.496Z,15.43
2023-04-18T13:05:08.427Z,15.32
2023-04-18T13:06:08.438Z,15.25
2023-04-18T13:07:08.419Z,15.23